createdAt,value
2023-01-09T00:00:58.472Z,34.55
2023-01-09T00:04:02.149Z,32.03
2023-01-09T00:07:05.403Z,32.28
2023-01-09T00:10:11.873Z,35.28
2023-01-09T00:13:15.234Z,36.35
2023-01-09T00:16:18.480Z,35.10
2023-01-09T00:19:21.593Z,30.23
2023-01-09T00:22:25.652Z,34.80
2023-01-09T00:25:30.432Z,34.22
2023-01-09T00:28:33.812Z,36.30
2023-01-09T00:31:37.081Z,33.75
2023-01-09T00:34:40.450Z,36.25
2023-01-09T00:37:43.811Z,30.15
2023-01-09T00:40:48.515Z,32.92
2023-01-09T00:43:55.249Z,36.28
2023-01-09T00:47:02.083Z,38.60
2023-01-09T00:50:09.392Z,35.53
2023-01-09T00:53:17.553Z,36.00
2023-01-09T00:56:23.292Z,30.43
2023-01-09T00:59:28.231Z,34.38
2023-01-09T01:02:31.479Z,31.85
2023-01-09T01:05:53.204Z,35.65
2023-01-09T01:08:56.760Z,38.03
2023-01-09T01:12:02.202Z,38.38
2023-01-09T01:15:06.671Z,37.75
2023-01-09T01:18:11.088Z,32.78
2023-01-09T01:21:15.203Z,42.95
2023-01-09T01:24:21.391Z,33.00
2023-01-09T01:27:27.660Z,32.72
2023-01-09T01:30:31.816Z,34.25
2023-01-09T01:33:36.902Z,33.15
2023-01-09T01:36:40.191Z,35.00
2023-01-09T01:39:43.467Z,31.23
2023-01-09T01:42:49.732Z,31.48
2023-01-09T01:45:53.090Z,32.97
2023-01-09T01:49:02.350Z,32.78
2023-01-09T01:52:05.617Z,34.70
2023-01-09T01:55:10.511Z,32.90
2023-01-09T01:58:16.515Z,33.05
2023-01-09T02:01:21.104Z,31.30
2023-01-09T02:04:24.595Z,33.13
2023-01-09T02:07:28.171Z,31.25
2023-01-09T02:10:31.787Z,33.03
2023-01-09T02:13:40.682Z,30.45
2023-01-09T02:16:52.314Z,32.88
2023-01-09T02:20:38.495Z,35.58
2023-01-09T02:24:10.958Z,33.42
2023-01-09T02:27:49.951Z,38.33
2023-01-09T02:30:58.432Z,32.53
2023-01-09T02:34:08.452Z,34.85
2023-01-09T02:37:20.912Z,35.67
2023-01-09T02:40:28.275Z,33.10
2023-01-09T02:43:32.788Z,33.85
2023-01-09T02:46:37.550Z,35.70
2023-01-09T02:49:41.791Z,33.90
2023-01-09T02:53:09.193Z,32.03
2023-01-09T02:56:31.151Z,30.58
2023-01-09T02:59:40.657Z,30.33
2023-01-09T03:02:50.265Z,30.98
2023-01-09T03:05:59.391Z,32.35
2023-01-09T03:09:07.277Z,33.97
2023-01-09T03:12:13.631Z,32.83
2023-01-09T03:15:18.991Z,39.95
2023-01-09T03:18:27.956Z,37.13
2023-01-09T03:24:34.872Z,35.58
2023-01-09T03:27:38.021Z,37.38
2023-01-09T03:30:41.211Z,40.80
2023-01-09T03:33:46.308Z,36.53
2023-01-09T03:36:49.481Z,34.65
2023-01-09T03:39:52.633Z,35.70
2023-01-09T03:42:55.822Z,36.53
2023-01-09T03:45:59.417Z,40.00
2023-01-09T03:49:04.099Z,34.38
2023-01-09T03:52:07.292Z,36.60
2023-01-09T03:55:10.718Z,35.40
2023-01-09T03:58:14.215Z,31.95
2023-01-09T04:01:17.548Z,36.72
2023-01-09T04:04:22.273Z,36.92
2023-01-09T04:07:25.492Z,34.17
2023-01-09T04:10:28.903Z,31.88
2023-01-09T04:13:32.118Z,36.35
2023-01-09T04:16:35.410Z,37.45
2023-01-09T04:19:40.233Z,35.85
2023-01-09T04:22:43.528Z,35.25
2023-01-09T04:25:47.995Z,34.92
2023-01-09T04:28:51.155Z,36.22
2023-01-09T04:31:54.333Z,33.72
2023-01-09T04:34:59.153Z,34.17
2023-01-09T04:38:02.317Z,34.20
2023-01-09T04:41:05.585Z,37.08
2023-01-09T04:44:08.841Z,38.90
2023-01-09T04:47:13.954Z,39.95
2023-01-09T04:50:18.947Z,46.78
2023-01-09T04:53:22.073Z,51.88
2023-01-09T04:56:25.474Z,57.55
2023-01-09T04:59:28.679Z,57.88
2023-01-09T05:02:32.158Z,52.45
2023-01-09T05:05:36.842Z,61.60
2023-01-09T05:08:39.982Z,62.95
2023-01-09T05:11:43.154Z,52.78
2023-01-09T05:14:46.353Z,63.33
2023-01-09T05:17:49.519Z,60.33
2023-01-09T05:20:54.155Z,59.53
2023-01-09T05:23:57.314Z,59.72
2023-01-09T05:27:03.002Z,70.22
2023-01-09T05:30:07.283Z,60.60
2023-01-09T05:33:10.597Z,58.90
2023-01-09T05:36:15.401Z,62.30
2023-01-09T05:39:18.521Z,65.05
2023-01-09T05:42:21.654Z,68.22
2023-01-09T05:45:24.863Z,57.97
2023-01-09T05:48:28.102Z,58.03
2023-01-09T05:51:33.234Z,67.78
2023-01-09T05:54:36.432Z,56.53
2023-01-09T05:57:39.707Z,57.47
2023-01-09T06:00:42.846Z,58.75
2023-01-09T06:03:45.953Z,61.78
2023-01-09T06:06:50.554Z,61.80
2023-01-09T06:09:53.675Z,60.80
2023-01-09T06:12:56.832Z,69.50
2023-01-09T06:15:59.961Z,62.60
2023-01-09T06:19:03.346Z,69.10
2023-01-09T06:22:08.232Z,71.72
2023-01-09T06:25:11.547Z,73.63
2023-01-09T06:28:14.752Z,66.97
2023-01-09T06:31:18.030Z,63.30
2023-01-09T06:34:21.234Z,75.55
2023-01-09T06:37:26.113Z,75.75
2023-01-09T06:40:29.316Z,72.05
2023-01-09T06:43:32.639Z,75.60
2023-01-09T06:46:35.793Z,74.13
2023-01-09T06:49:38.957Z,75.80
2023-01-09T06:52:43.760Z,83.00
2023-01-09T06:55:47.196Z,78.90
2023-01-09T06:58:50.308Z,68.68
2023-01-09T07:01:53.732Z,70.63
2023-01-09T07:04:57.123Z,73.93
2023-01-09T07:08:01.802Z,74.18
2023-01-09T07:11:05.104Z,73.57
2023-01-09T07:14:08.522Z,67.38
2023-01-09T07:17:13.898Z,66.93
2023-01-09T07:20:18.483Z,71.88
2023-01-09T07:23:23.185Z,63.05
2023-01-09T07:26:26.320Z,66.80
2023-01-09T07:29:29.752Z,73.57
2023-01-09T07:32:32.952Z,73.13
2023-01-09T07:35:36.283Z,62.13
2023-01-09T07:38:41.005Z,62.20
2023-01-09T07:41:45.109Z,62.35
2023-01-09T07:44:48.193Z,62.47
2023-01-09T07:47:52.703Z,63.83
2023-01-09T07:50:55.836Z,58.22
2023-01-09T07:54:00.728Z,55.03
2023-01-09T07:57:04.133Z,51.65
2023-01-09T08:00:11.283Z,54.53
2023-01-09T08:03:17.135Z,47.17
2023-01-09T08:06:20.355Z,46.63
2023-01-09T08:09:25.037Z,48.72
2023-01-09T08:12:28.230Z,45.22
2023-01-09T08:15:31.514Z,42.13
2023-01-09T08:18:34.879Z,44.50
2023-01-09T08:21:38.127Z,41.40
2023-01-09T08:24:42.859Z,41.67
2023-01-09T08:27:46.398Z,43.88
2023-01-09T08:30:49.554Z,42.15
2023-01-09T08:33:52.722Z,39.60
2023-01-09T08:36:55.874Z,43.83
2023-01-09T08:40:00.632Z,40.05
2023-01-09T08:43:22.404Z,42.92
2023-01-09T08:46:44.842Z,38.15
2023-01-09T08:49:48.045Z,43.83
2023-01-09T08:52:51.233Z,40.47
2023-01-09T08:55:55.904Z,36.67
2023-01-09T08:58:59.271Z,46.30
2023-01-09T09:02:02.714Z,41.75
2023-01-09T09:05:07.034Z,39.95
2023-01-09T09:08:10.232Z,33.35
2023-01-09T09:11:15.154Z,37.90
2023-01-09T09:14:36.875Z,44.13
2023-01-09T09:17:40.721Z,38.42
2023-01-09T09:20:43.799Z,34.90
2023-01-09T09:23:47.021Z,36.35
2023-01-09T09:26:51.676Z,32.72
2023-01-09T09:29:54.993Z,28.85
2023-01-09T09:32:58.283Z,26.17
2023-01-09T09:36:01.540Z,21.25
2023-01-09T09:39:07.584Z,20.70
2023-01-09T09:43:03.914Z,21.90
2023-01-09T09:46:19.805Z,23.58
2023-01-09T09:49:28.474Z,22.45
2023-01-09T09:52:39.950Z,18.40
2023-01-09T09:55:45.506Z,18.73
2023-01-09T09:58:54.836Z,15.55
2023-01-09T10:02:02.815Z,13.13
2023-01-09T10:05:12.733Z,28.53
2023-01-09T10:08:26.274Z,19.80
2023-01-09T10:11:37.675Z,62.83
2023-01-09T10:14:42.325Z,130.27
2023-01-09T10:17:57.640Z,84.80
2023-01-09T10:21:07.525Z,172.07
2023-01-09T10:24:32.654Z,119.50
2023-01-09T10:27:47.534Z,99.32
2023-01-09T10:30:56.909Z,52.75
2023-01-09T10:34:11.549Z,44.45
2023-01-09T10:37:19.725Z,41.20
2023-01-09T10:40:26.267Z,33.90
2023-01-09T10:43:35.313Z,25.13
2023-01-09T10:49:54.615Z,54.30
2023-01-09T10:52:58.541Z,34.92
2023-01-09T10:56:09.193Z,21.70
2023-01-09T10:59:12.384Z,28.73
2023-01-09T11:02:27.209Z,28.83
2023-01-09T11:05:32.803Z,83.47
2023-01-09T11:08:42.280Z,245.00
2023-01-09T11:11:45.818Z,304.55
2023-01-09T11:14:48.863Z,619.53
2023-01-09T11:17:53.491Z,518.72
2023-01-09T11:21:14.181Z,257.50
2023-01-09T11:24:31.685Z,479.55
2023-01-09T11:27:34.782Z,200.95
2023-01-09T11:30:51.425Z,297.15
2023-01-09T11:33:56.014Z,157.60
2023-01-09T11:37:07.039Z,214.25
2023-01-09T11:40:19.503Z,165.82
2023-01-09T11:43:35.782Z,63.35
2023-01-09T11:46:42.162Z,79.30
2023-01-09T11:49:51.358Z,148.73
2023-01-09T11:53:13.891Z,23.40
2023-01-09T11:56:18.034Z,41.65
2023-01-09T11:59:23.416Z,50.10
2023-01-09T12:02:58.279Z,110.85
2023-01-09T12:06:13.514Z,99.03
2023-01-09T12:09:26.107Z,41.53
2023-01-09T12:12:36.337Z,27.10
2023-01-09T12:15:49.459Z,23.33
2023-01-09T12:19:11.624Z,16.67
2023-01-09T12:22:27.622Z,24.70
2023-01-09T12:25:42.504Z,12.73
2023-01-09T12:29:12.317Z,15.65
2023-01-09T12:32:33.153Z,12.27
2023-01-09T12:35:45.015Z,10.10
2023-01-09T12:38:55.669Z,10.63
2023-01-09T12:42:18.187Z,10.45
2023-01-09T12:45:42.495Z,7.70
2023-01-09T12:49:13.596Z,8.88
2023-01-09T12:52:23.636Z,8.60
2023-01-09T12:55:33.744Z,12.45
2023-01-09T12:58:43.793Z,7.55
2023-01-09T13:01:49.126Z,10.57
2023-01-09T13:04:57.337Z,12.70
2023-01-09T13:08:05.572Z,12.20
2023-01-09T13:11:20.278Z,6.95
2023-01-09T13:14:39.694Z,9.30
2023-01-09T13:17:48.234Z,7.68
2023-01-09T13:20:54.206Z,7.80
2023-01-09T13:24:04.449Z,6.22
2023-01-09T13:27:13.794Z,5.68
2023-01-09T13:30:26.524Z,6.90
2023-01-09T13:33:31.567Z,24.05
2023-01-09T13:36:46.267Z,9.38
2023-01-09T13:39:58.060Z,8.75
2023-01-09T13:43:06.477Z,6.63
2023-01-09T13:46:09.877Z,10.02
2023-01-09T13:49:34.514Z,6.88
2023-01-09T13:52:39.074Z,7.97
2023-01-09T13:56:06.005Z,8.18
2023-01-09T13:59:27.232Z,9.43
2023-01-09T14:02:54.634Z,8.30
2023-01-09T14:06:16.617Z,11.05
2023-01-09T14:09:22.095Z,11.98
2023-01-09T14:12:26.733Z,9.15
2023-01-09T14:15:36.844Z,12.77
2023-01-09T14:18:47.594Z,11.15
2023-01-09T14:21:54.733Z,13.18
2023-01-09T14:25:04.643Z,17.02
2023-01-09T14:28:21.277Z,13.38
2023-01-09T14:31:33.117Z,13.82
2023-01-09T14:34:37.797Z,15.70
2023-01-09T14:37:42.595Z,16.50
2023-01-09T14:40:49.427Z,16.83
2023-01-09T14:43:57.594Z,16.77
2023-01-09T14:47:12.686Z,18.10
2023-01-09T14:50:19.713Z,32.97
2023-01-09T14:53:25.076Z,30.58
2023-01-09T14:56:30.474Z,29.13
2023-01-09T14:59:33.635Z,24.17
2023-01-09T15:02:39.905Z,26.77
2023-01-09T15:05:45.093Z,30.50
2023-01-09T15:08:53.589Z,27.23
2023-01-09T15:12:02.685Z,28.02
2023-01-09T15:15:12.794Z,31.88
2023-01-09T15:18:24.637Z,39.85
2023-01-09T15:21:31.586Z,36.58
2023-01-09T15:24:35.478Z,38.33
2023-01-09T15:27:48.552Z,41.50
2023-01-09T15:30:58.583Z,40.70
2023-01-09T15:34:04.829Z,58.08
2023-01-09T15:37:25.193Z,78.40
2023-01-09T15:40:34.396Z,78.68
2023-01-09T15:43:43.336Z,67.68
2023-01-09T15:49:52.867Z,75.63
2023-01-09T15:52:56.853Z,62.53
2023-01-09T15:56:17.105Z,61.75
2023-01-09T15:59:29.842Z,45.90
2023-01-09T16:02:51.695Z,45.75
2023-01-09T16:06:05.957Z,35.30
2023-01-09T16:09:17.789Z,47.20
2023-01-09T16:12:23.963Z,58.63
2023-01-09T16:15:27.783Z,48.22
2023-01-09T16:18:37.676Z,48.53
2023-01-09T16:21:42.319Z,52.78
2023-01-09T16:24:45.387Z,42.45
2023-01-09T16:28:08.833Z,35.67
2023-01-09T16:31:20.972Z,38.28
2023-01-09T16:34:25.016Z,31.42
2023-01-09T16:37:29.793Z,37.83
2023-01-09T16:40:36.415Z,48.65
2023-01-09T16:43:39.592Z,43.75
2023-01-09T16:46:44.087Z,51.13
2023-01-09T16:49:47.191Z,59.58
2023-01-09T16:52:51.951Z,79.05
2023-01-09T16:55:55.472Z,83.97
2023-01-09T16:58:59.434Z,104.07
2023-01-09T17:02:02.566Z,83.88
2023-01-09T17:05:06.622Z,75.07
2023-01-09T17:08:21.960Z,60.78
2023-01-09T17:11:33.235Z,76.45
2023-01-09T17:14:36.353Z,52.75
2023-01-09T17:17:39.537Z,62.97
2023-01-09T17:20:45.390Z,36.97
2023-01-09T17:24:10.376Z,49.00
2023-01-09T17:27:32.242Z,78.50
2023-01-09T17:30:35.363Z,170.35
2023-01-09T17:33:39.576Z,95.47
2023-01-09T17:36:44.896Z,80.78
2023-01-09T17:39:49.455Z,115.63
2023-01-09T17:42:52.593Z,162.60
2023-01-09T17:45:56.796Z,101.05
2023-01-09T17:49:01.039Z,116.18
2023-01-09T17:52:04.283Z,120.43
2023-01-09T17:55:10.022Z,158.75
2023-01-09T17:58:26.592Z,181.88
2023-01-09T18:01:29.816Z,154.32
2023-01-09T18:04:33.092Z,126.90
2023-01-09T18:07:36.212Z,77.13
2023-01-09T18:10:41.192Z,66.30
2023-01-09T18:13:44.878Z,59.65
2023-01-09T18:16:48.040Z,71.25
2023-01-09T18:19:51.435Z,95.80
2023-01-09T18:22:54.453Z,122.75
2023-01-09T18:25:59.072Z,89.20
2023-01-09T18:29:02.324Z,72.50
2023-01-09T18:32:06.023Z,121.15
2023-01-09T18:35:10.112Z,100.95
2023-01-09T18:38:14.372Z,106.78
2023-01-09T18:41:19.792Z,145.20
2023-01-09T18:44:23.071Z,187.93
2023-01-09T18:47:26.143Z,197.68
2023-01-09T18:50:29.422Z,90.30
2023-01-09T18:53:33.004Z,116.45
2023-01-09T18:56:37.813Z,78.53
2023-01-09T18:59:41.279Z,65.85
2023-01-09T19:02:44.393Z,66.05
2023-01-09T19:05:48.273Z,64.05
2023-01-09T19:08:51.440Z,77.93
2023-01-09T19:11:55.931Z,109.38
2023-01-09T19:14:58.969Z,87.53
2023-01-09T19:18:01.948Z,84.03
2023-01-09T19:21:10.250Z,68.07
2023-01-09T19:24:13.350Z,67.22
2023-01-09T19:27:17.849Z,62.63
2023-01-09T19:30:22.141Z,66.25
2023-01-09T19:33:25.791Z,67.93
2023-01-09T19:36:29.073Z,65.70
2023-01-09T19:39:32.681Z,65.53
2023-01-09T19:42:37.209Z,58.70
2023-01-09T19:45:40.389Z,62.10
2023-01-09T19:48:43.612Z,60.95
2023-01-09T19:51:46.750Z,61.08
2023-01-09T19:54:49.792Z,66.82
2023-01-09T19:57:54.429Z,74.63
2023-01-09T20:00:57.486Z,91.07
2023-01-09T20:04:10.310Z,145.80
2023-01-09T20:07:15.143Z,231.07
2023-01-09T20:10:18.394Z,188.10
2023-01-09T20:13:23.072Z,214.93
2023-01-09T20:16:30.514Z,191.02
2023-01-09T20:19:34.264Z,108.30
2023-01-09T20:22:37.394Z,54.78
2023-01-09T20:25:40.653Z,37.53
2023-01-09T20:28:46.074Z,57.00
2023-01-09T20:31:49.325Z,49.40
2023-01-09T20:34:52.555Z,51.55
2023-01-09T20:37:56.205Z,56.70
2023-01-09T20:41:06.233Z,60.90
2023-01-09T20:44:13.215Z,47.05
2023-01-09T20:47:16.473Z,53.65
2023-01-09T20:50:19.755Z,87.18
2023-01-09T20:53:22.835Z,95.38
2023-01-09T20:56:26.686Z,129.85
2023-01-09T20:59:31.353Z,110.93
2023-01-09T21:02:36.032Z,89.22
2023-01-09T21:05:41.576Z,66.55
2023-01-09T21:08:45.477Z,68.97
2023-01-09T21:11:48.653Z,69.28
2023-01-09T21:14:53.509Z,76.72
2023-01-09T21:17:56.795Z,79.10
2023-01-09T21:21:04.274Z,70.10
2023-01-09T21:24:08.527Z,70.43
2023-01-09T21:27:11.719Z,67.97
2023-01-09T21:30:16.633Z,61.22
2023-01-09T21:33:23.517Z,48.05
2023-01-09T21:36:27.389Z,50.30
2023-01-09T21:39:30.716Z,50.28
2023-01-09T21:42:52.313Z,45.42
2023-01-09T21:46:21.037Z,50.92
2023-01-09T21:49:25.992Z,50.58
2023-01-09T21:52:29.192Z,50.33
2023-01-09T21:55:32.522Z,45.30
2023-01-09T21:58:36.056Z,52.22
2023-01-09T22:01:41.089Z,38.95
2023-01-09T22:04:49.198Z,37.10
2023-01-09T22:07:52.719Z,35.10
2023-01-09T22:10:56.671Z,36.25
2023-01-09T22:14:00.714Z,37.85
2023-01-09T22:17:05.441Z,37.58
2023-01-09T22:20:10.862Z,38.33
2023-01-09T22:23:13.993Z,40.05
2023-01-09T22:26:18.119Z,42.08
2023-01-09T22:29:22.192Z,49.40
2023-01-09T22:32:26.872Z,56.50
2023-01-09T22:35:29.926Z,59.67
2023-01-09T22:38:33.074Z,50.17
2023-01-09T22:41:36.212Z,45.83
2023-01-09T22:44:39.472Z,54.70
2023-01-09T22:47:44.153Z,57.90
2023-01-09T22:50:47.232Z,58.10
2023-01-09T22:53:51.191Z,58.33
2023-01-09T22:56:54.527Z,55.17
2023-01-09T22:59:57.794Z,65.18
2023-01-09T23:03:02.497Z,55.42
2023-01-09T23:06:07.673Z,54.72
2023-01-09T23:09:11.369Z,51.38
2023-01-09T23:12:14.556Z,61.60
2023-01-09T23:15:18.235Z,50.47
2023-01-09T23:18:23.061Z,54.53
2023-01-09T23:21:26.200Z,60.85
2023-01-09T23:24:30.414Z,60.13
2023-01-09T23:27:33.723Z,57.15
2023-01-09T23:30:36.893Z,59.13
2023-01-09T23:33:41.599Z,52.15
2023-01-09T23:36:44.995Z,50.13
2023-01-09T23:39:48.275Z,55.45
2023-01-09T23:43:09.515Z,51.88
2023-01-09T23:46:12.917Z,54.65
2023-01-09T23:49:17.757Z,48.50
2023-01-09T23:52:20.998Z,64.40
2023-01-09T23:55:24.279Z,69.00
2023-01-09T23:58:27.562Z,62.25
